createdAt,value
2018-12-19T11:53:19.827Z,21.64
2018-12-19T11:54:19.541Z,21.70
2018-12-19T11:55:21.040Z,21.66
2018-12-19T11:56:21.711Z,21.64
2018-12-19T11:57:21.148Z,21.71
2018-12-19T11:58:20.768Z,21.67
2018-12-19T11:59:22.012Z,21.71
2018-12-19T12:00:20.045Z,21.66
2018-12-19T12:01:19.711Z,21.68
2018-12-19T12:02:19.356Z,21.73
2018-12-19T12:03:19.321Z,21.78
2018-12-19T12:04:19.494Z,21.62
2018-12-19T12:05:19.407Z,21.70
2018-12-19T12:06:19.225Z,21.66
2018-12-19T12:07:19.509Z,21.73
2018-12-19T12:08:20.697Z,21.71
2018-12-19T12:09:19.144Z,21.78
2018-12-19T12:10:19.256Z,21.76
2018-12-19T12:11:19.078Z,21.80
2018-12-19T12:12:19.054Z,21.77
2018-12-19T12:13:19.030Z,21.78
2018-12-19T12:14:20.129Z,21.80
2018-12-19T12:15:20.927Z,21.86
2018-12-19T12:16:20.713Z,21.94
2018-12-19T12:17:19.586Z,21.92
2018-12-19T12:18:19.940Z,21.86
2018-12-19T12:19:18.877Z,21.93
2018-12-19T12:20:18.931Z,21.94
2018-12-19T12:21:19.028Z,21.99
2018-12-19T12:22:18.916Z,22.02
2018-12-19T12:23:20.272Z,22.07
2018-12-19T12:24:18.728Z,22.14
2018-12-19T12:25:18.701Z,22.08
2018-12-19T12:26:18.726Z,22.09
2018-12-19T12:27:18.774Z,22.15
2018-12-19T12:28:18.639Z,22.24
2018-12-19T12:29:18.599Z,22.23
2018-12-19T12:30:18.571Z,22.22
2018-12-19T12:31:18.620Z,22.29
2018-12-19T12:32:18.659Z,22.29
2018-12-19T12:33:18.494Z,22.34
2018-12-19T12:34:18.477Z,22.36
2018-12-19T12:35:18.426Z,22.39
2018-12-19T12:36:18.432Z,22.46
2018-12-19T12:37:18.375Z,22.57
2018-12-19T12:38:18.512Z,22.63
2018-12-19T12:39:18.328Z,22.64
2018-12-19T12:40:18.291Z,22.69
2018-12-19T12:41:18.266Z,22.76
2018-12-19T12:42:18.251Z,22.81
2018-12-19T12:43:18.234Z,22.88
2018-12-19T12:44:18.285Z,22.86
2018-12-19T12:45:18.160Z,22.94
2018-12-19T12:46:18.155Z,23.03
2018-12-19T12:47:18.289Z,23.10
2018-12-19T12:48:19.257Z,23.15
2018-12-19T12:49:18.815Z,23.24
2018-12-19T12:50:18.199Z,23.34
2018-12-19T12:51:19.785Z,23.41
2018-12-19T12:52:18.213Z,23.44
2018-12-19T12:53:17.950Z,23.47
2018-12-19T12:54:18.334Z,23.52
2018-12-19T12:55:18.171Z,23.50
2018-12-19T12:56:18.125Z,23.50
2018-12-19T12:57:18.140Z,23.52
2018-12-19T12:58:17.808Z,23.56
2018-12-19T12:59:17.827Z,23.57
2018-12-19T13:00:17.944Z,23.59
2018-12-19T13:01:17.860Z,23.66
2018-12-19T13:02:17.709Z,23.77
2018-12-19T13:03:17.664Z,23.81
2018-12-19T13:04:17.634Z,23.97
2018-12-19T13:05:18.444Z,24.00
2018-12-19T13:06:17.598Z,24.03
2018-12-19T13:07:17.557Z,24.04
2018-12-19T13:08:19.204Z,24.03
2018-12-19T13:09:17.549Z,24.21
2018-12-19T13:10:17.568Z,24.33
2018-12-19T13:11:17.604Z,24.42
2018-12-19T13:12:17.478Z,24.55
2018-12-19T13:13:17.413Z,24.51
2018-12-19T13:14:17.381Z,24.66
2018-12-19T13:15:17.347Z,24.64
2018-12-19T13:16:17.332Z,24.71
2018-12-19T13:17:17.459Z,24.82
2018-12-19T13:18:17.266Z,24.94
2018-12-19T13:19:17.300Z,25.00
2018-12-19T13:20:17.208Z,25.02
2018-12-19T13:21:17.188Z,25.20
2018-12-19T13:22:17.331Z,25.27
2018-12-19T13:23:17.165Z,25.32
2018-12-19T13:24:18.927Z,25.41
2018-12-19T13:25:17.399Z,25.47
2018-12-19T13:26:17.168Z,25.51
2018-12-19T13:27:17.236Z,25.57
2018-12-19T13:28:17.006Z,25.71
2018-12-19T13:29:17.077Z,25.76
2018-12-19T13:31:16.937Z,25.99
2018-12-19T13:32:16.933Z,25.91
2018-12-19T13:33:16.981Z,26.15
2018-12-19T13:34:16.858Z,26.15
2018-12-19T13:35:16.820Z,26.19
2018-12-19T13:36:16.816Z,26.32
2018-12-19T13:37:16.793Z,26.45
2018-12-19T13:38:17.274Z,26.52
2018-12-19T13:39:17.145Z,26.67
2018-12-19T13:40:17.418Z,26.71
2018-12-19T13:41:17.317Z,26.74
2018-12-19T13:42:18.195Z,26.79
